Terminal Aerodrome Forecast
Issued by NWS Tulsa, OK

Home | Current Version | Previous Version | Text Only | Print | Product List | Glossary On
Versions: 1 2 3 4 5 6 7 8 9 10 11 12
000
FTUS44 KTSA 251737
TAFFSM
TAF
KFSM 251737Z 2518/2618 16010KT P6SM SCT060
     FM260100 13006KT P6SM FEW060 SCT250
     FM260500 09004KT P6SM FEW050 BKN200
     FM261600 17006KT P6SM SCT050 BKN150=

USA.gov is the U.S. government's official web portal to all federal, state and local government web resources and services.